sensor_id;sensor_type;location;lat;lon;timestamp;temperature;humidity
5459;DHT22;2752;49.992;8.422;2022-08-04T00:02:18;24.40;1.00
5459;DHT22;2752;49.992;8.422;2022-08-04T00:04:53;24.60;1.00
5459;DHT22;2752;49.992;8.422;2022-08-04T00:07:26;24.50;1.00
5459;DHT22;2752;49.992;8.422;2022-08-04T00:09:59;24.50;1.00
5459;DHT22;2752;49.992;8.422;2022-08-04T00:12:28;24.40;1.00
5459;DHT22;2752;49.992;8.422;2022-08-04T00:14:59;24.40;1.00
5459;DHT22;2752;49.992;8.422;2022-08-04T00:17:30;24.50;1.00
5459;DHT22;2752;49.992;8.422;2022-08-04T00:20:00;24.40;1.00
5459;DHT22;2752;49.992;8.422;2022-08-04T00:22:30;24.50;1.00
5459;DHT22;2752;49.992;8.422;2022-08-04T00:24:59;24.40;1.00
5459;DHT22;2752;49.992;8.422;2022-08-04T00:27:27;24.40;1.00
5459;DHT22;2752;49.992;8.422;2022-08-04T00:29:55;24.40;1.00
5459;DHT22;2752;49.992;8.422;2022-08-04T00:32:22;24.40;1.00
5459;DHT22;2752;49.992;8.422;2022-08-04T00:34:49;24.30;1.00
5459;DHT22;2752;49.992;8.422;2022-08-04T00:37:20;24.30;1.00
5459;DHT22;2752;49.992;8.422;2022-08-04T00:39:48;24.30;1.00
5459;DHT22;2752;49.992;8.422;2022-08-04T00:42:40;24.40;1.00
5459;DHT22;2752;49.992;8.422;2022-08-04T00:45:40;24.40;1.00
5459;DHT22;2752;49.992;8.422;2022-08-04T00:48:19;24.40;1.00
5459;DHT22;2752;49.992;8.422;2022-08-04T00:50:56;24.40;1.00
5459;DHT22;2752;49.992;8.422;2022-08-04T00:53:32;24.40;1.00
5459;DHT22;2752;49.992;8.422;2022-08-04T00:56:09;24.30;1.00
5459;DHT22;2752;49.992;8.422;2022-08-04T00:58:45;24.40;1.00
5459;DHT22;2752;49.992;8.422;2022-08-04T01:04:09;24.20;1.00
5459;DHT22;2752;49.992;8.422;2022-08-04T01:06:40;24.20;1.00
5459;DHT22;2752;49.992;8.422;2022-08-04T01:09:23;24.20;1.00
5459;DHT22;2752;49.992;8.422;2022-08-04T01:12:06;24.20;1.00
5459;DHT22;2752;49.992;8.422;2022-08-04T01:15:03;24.10;1.00
5459;DHT22;2752;49.992;8.422;2022-08-04T01:17:41;24.10;1.00
5459;DHT22;2752;49.992;8.422;2022-08-04T01:20:10;24.00;1.00
5459;DHT22;2752;49.992;8.422;2022-08-04T01:26:06;24.00;1.00
5459;DHT22;2752;49.992;8.422;2022-08-04T01:31:41;24.00;1.00
5459;DHT22;2752;49.992;8.422;2022-08-04T01:34:12;23.80;1.00
5459;DHT22;2752;49.992;8.422;2022-08-04T01:36:44;23.80;1.00
5459;DHT22;2752;49.992;8.422;2022-08-04T01:39:11;23.90;1.00
5459;DHT22;2752;49.992;8.422;2022-08-04T01:41:55;23.70;1.00
5459;DHT22;2752;49.992;8.422;2022-08-04T01:44:23;23.60;1.00
5459;DHT22;2752;49.992;8.422;2022-08-04T01:46:52;23.50;1.00
5459;DHT22;2752;49.992;8.422;2022-08-04T01:49:20;23.50;1.00
5459;DHT22;2752;49.992;8.422;2022-08-04T01:51:49;23.50;1.00
5459;DHT22;2752;49.992;8.422;2022-08-04T01:54:17;23.50;1.00
5459;DHT22;2752;49.992;8.422;2022-08-04T01:56:46;23.60;1.00
5459;DHT22;2752;49.992;8.422;2022-08-04T01:59:14;23.70;1.00
5459;DHT22;2752;49.992;8.422;2022-08-04T02:01:43;23.50;1.00
5459;DHT22;2752;49.992;8.422;2022-08-04T02:04:14;23.50;1.00
5459;DHT22;2752;49.992;8.422;2022-08-04T02:06:50;23.40;1.00
5459;DHT22;2752;49.992;8.422;2022-08-04T02:09:22;23.40;1.00
5459;DHT22;2752;49.992;8.422;2022-08-04T02:12:01;23.40;1.00
5459;DHT22;2752;49.992;8.422;2022-08-04T02:14:29;23.40;1.00
5459;DHT22;2752;49.992;8.422;2022-08-04T02:17:09;23.40;1.00
5459;DHT22;2752;49.992;8.422;2022-08-04T02:19:50;23.50;1.00
5459;DHT22;2752;49.992;8.422;2022-08-04T02:22:21;23.20;1.00
5459;DHT22;2752;49.992;8.422;2022-08-04T02:24:55;22.80;1.00
5459;DHT22;2752;49.992;8.422;2022-08-04T02:27:28;23.10;1.00
5459;DHT22;2752;49.992;8.422;2022-08-04T02:30:01;23.00;1.00
5459;DHT22;2752;49.992;8.422;2022-08-04T02:32:29;23.10;1.00
5459;DHT22;2752;49.992;8.422;2022-08-04T02:35:02;23.00;1.00
5459;DHT22;2752;49.992;8.422;2022-08-04T02:37:32;23.00;1.00
5459;DHT22;2752;49.992;8.422;2022-08-04T02:40:02;23.00;1.00
5459;DHT22;2752;49.992;8.422;2022-08-04T02:42:31;22.90;1.00
5459;DHT22;2752;49.992;8.422;2022-08-04T02:44:59;22.90;1.00
5459;DHT22;2752;49.992;8.422;2022-08-04T02:47:27;22.90;1.00
5459;DHT22;2752;49.992;8.422;2022-08-04T02:49:56;22.80;1.00
5459;DHT22;2752;49.992;8.422;2022-08-04T02:52:25;22.80;1.00
5459;DHT22;2752;49.992;8.422;2022-08-04T02:54:54;23.10;1.00
5459;DHT22;2752;49.992;8.422;2022-08-04T02:57:23;22.80;1.00
5459;DHT22;2752;49.992;8.422;2022-08-04T03:00:03;22.70;1.00
5459;DHT22;2752;49.992;8.422;2022-08-04T03:02:41;22.70;1.00
5459;DHT22;2752;49.992;8.422;2022-08-04T03:05:14;22.80;1.00
5459;DHT22;2752;49.992;8.422;2022-08-04T03:08:05;22.70;1.00
5459;DHT22;2752;49.992;8.422;2022-08-04T03:11:11;22.70;1.00
5459;DHT22;2752;49.992;8.422;2022-08-04T03:14:10;22.70;1.00
5459;DHT22;2752;49.992;8.422;2022-08-04T03:20:15;22.60;1.00
5459;DHT22;2752;49.992;8.422;2022-08-04T03:23:23;22.50;1.00
5459;DHT22;2752;49.992;8.422;2022-08-04T03:26:18;22.50;1.00
5459;DHT22;2752;49.992;8.422;2022-08-04T03:29:25;22.50;1.00
5459;DHT22;2752;49.992;8.422;2022-08-04T03:35:15;22.40;1.00
5459;DHT22;2752;49.992;8.422;2022-08-04T03:38:15;22.40;1.00
5459;DHT22;2752;49.992;8.422;2022-08-04T03:44:13;22.30;1.00
5459;DHT22;2752;49.992;8.422;2022-08-04T03:47:24;22.30;1.00
5459;DHT22;2752;49.992;8.422;2022-08-04T03:50:15;22.30;1.00
5459;DHT22;2752;49.992;8.422;2022-08-04T03:53:08;22.30;1.00
5459;DHT22;2752;49.992;8.422;2022-08-04T03:56:13;22.20;1.00
5459;DHT22;2752;49.992;8.422;2022-08-04T03:59:13;22.20;1.00
5459;DHT22;2752;49.992;8.422;2022-08-04T04:02:03;22.20;1.00
5459;DHT22;2752;49.992;8.422;2022-08-04T04:04:59;22.10;1.00
5459;DHT22;2752;49.992;8.422;2022-08-04T04:08:05;22.20;1.00
5459;DHT22;2752;49.992;8.422;2022-08-04T04:14:09;22.20;1.00
5459;DHT22;2752;49.992;8.422;2022-08-04T04:16:54;22.10;1.00
5459;DHT22;2752;49.992;8.422;2022-08-04T04:19:58;22.10;1.00
5459;DHT22;2752;49.992;8.422;2022-08-04T04:22:50;22.10;1.00
5459;DHT22;2752;49.992;8.422;2022-08-04T04:25:33;22.10;1.00
5459;DHT22;2752;49.992;8.422;2022-08-04T04:28:17;22.10;1.00
5459;DHT22;2752;49.992;8.422;2022-08-04T04:30:52;22.00;1.00
5459;DHT22;2752;49.992;8.422;2022-08-04T04:33:36;22.20;1.00
5459;DHT22;2752;49.992;8.422;2022-08-04T04:36:11;22.20;1.00
5459;DHT22;2752;49.992;8.422;2022-08-04T04:38:56;22.30;1.00
5459;DHT22;2752;49.992;8.422;2022-08-04T04:41:56;22.40;1.00
5459;DHT22;2752;49.992;8.422;2022-08-04T04:45:02;22.40;1.00
5459;DHT22;2752;49.992;8.422;2022-08-04T04:47:39;22.40;1.00
5459;DHT22;2752;49.992;8.422;2022-08-04T04:50:12;22.40;1.00
5459;DHT22;2752;49.992;8.422;2022-08-04T04:52:46;22.50;1.00
5459;DHT22;2752;49.992;8.422;2022-08-04T04:55:19;22.50;1.00
5459;DHT22;2752;49.992;8.422;2022-08-04T04:57:50;22.50;1.00
5459;DHT22;2752;49.992;8.422;2022-08-04T05:00:18;22.60;1.00
5459;DHT22;2752;49.992;8.422;2022-08-04T05:03:08;22.60;1.00
5459;DHT22;2752;49.992;8.422;2022-08-04T05:05:54;22.60;1.00
5459;DHT22;2752;49.992;8.422;2022-08-04T05:08:35;22.70;1.00
5459;DHT22;2752;49.992;8.422;2022-08-04T05:11:48;22.80;1.00
5459;DHT22;2752;49.992;8.422;2022-08-04T05:14:19;22.70;1.00
5459;DHT22;2752;49.992;8.422;2022-08-04T05:16:53;23.00;1.00
5459;DHT22;2752;49.992;8.422;2022-08-04T05:19:25;23.00;1.00
5459;DHT22;2752;49.992;8.422;2022-08-04T05:22:00;23.10;1.00
5459;DHT22;2752;49.992;8.422;2022-08-04T05:24:33;23.10;1.00
5459;DHT22;2752;49.992;8.422;2022-08-04T05:27:08;23.20;1.00
5459;DHT22;2752;49.992;8.422;2022-08-04T05:29:45;23.20;1.00
5459;DHT22;2752;49.992;8.422;2022-08-04T05:32:15;23.30;1.00
5459;DHT22;2752;49.992;8.422;2022-08-04T05:34:53;23.30;1.00
5459;DHT22;2752;49.992;8.422;2022-08-04T05:37:21;23.40;1.00
5459;DHT22;2752;49.992;8.422;2022-08-04T05:39:52;23.50;1.00
5459;DHT22;2752;49.992;8.422;2022-08-04T05:42:21;23.60;1.00
5459;DHT22;2752;49.992;8.422;2022-08-04T05:44:48;23.70;1.00
5459;DHT22;2752;49.992;8.422;2022-08-04T05:47:16;23.80;1.00
5459;DHT22;2752;49.992;8.422;2022-08-04T05:49:44;24.00;1.00
5459;DHT22;2752;49.992;8.422;2022-08-04T05:52:13;24.00;1.00
5459;DHT22;2752;49.992;8.422;2022-08-04T05:54:41;24.20;1.00
5459;DHT22;2752;49.992;8.422;2022-08-04T05:57:08;24.40;1.00
5459;DHT22;2752;49.992;8.422;2022-08-04T05:59:38;24.50;1.00
5459;DHT22;2752;49.992;8.422;2022-08-04T06:02:07;24.50;1.00
5459;DHT22;2752;49.992;8.422;2022-08-04T06:04:37;24.60;1.00
5459;DHT22;2752;49.992;8.422;2022-08-04T06:07:06;24.60;1.00
5459;DHT22;2752;49.992;8.422;2022-08-04T06:09:34;24.70;1.00
5459;DHT22;2752;49.992;8.422;2022-08-04T06:12:05;24.80;1.00
5459;DHT22;2752;49.992;8.422;2022-08-04T06:14:36;24.90;1.00
5459;DHT22;2752;49.992;8.422;2022-08-04T06:17:05;25.00;1.00
5459;DHT22;2752;49.992;8.422;2022-08-04T06:19:34;25.10;1.00
5459;DHT22;2752;49.992;8.422;2022-08-04T06:22:02;25.20;1.00
5459;DHT22;2752;49.992;8.422;2022-08-04T06:24:31;25.30;1.00
5459;DHT22;2752;49.992;8.422;2022-08-04T06:27:00;25.40;1.00
5459;DHT22;2752;49.992;8.422;2022-08-04T06:29:30;25.50;1.00
5459;DHT22;2752;49.992;8.422;2022-08-04T06:32:02;25.60;1.00
5459;DHT22;2752;49.992;8.422;2022-08-04T06:34:38;25.70;1.00
5459;DHT22;2752;49.992;8.422;2022-08-04T06:37:06;26.00;1.00
5459;DHT22;2752;49.992;8.422;2022-08-04T06:39:33;26.10;1.00
5459;DHT22;2752;49.992;8.422;2022-08-04T06:42:02;26.30;1.00
5459;DHT22;2752;49.992;8.422;2022-08-04T06:44:29;26.40;1.00
5459;DHT22;2752;49.992;8.422;2022-08-04T06:46:57;26.50;1.00
5459;DHT22;2752;49.992;8.422;2022-08-04T06:49:24;26.70;1.00
5459;DHT22;2752;49.992;8.422;2022-08-04T06:51:53;26.70;1.00
5459;DHT22;2752;49.992;8.422;2022-08-04T06:54:21;26.80;1.00
5459;DHT22;2752;49.992;8.422;2022-08-04T06:56:48;26.90;1.00
5459;DHT22;2752;49.992;8.422;2022-08-04T06:59:18;26.90;1.00
5459;DHT22;2752;49.992;8.422;2022-08-04T07:01:47;27.00;1.00
5459;DHT22;2752;49.992;8.422;2022-08-04T07:04:15;27.10;1.00
5459;DHT22;2752;49.992;8.422;2022-08-04T07:06:42;27.20;1.00
5459;DHT22;2752;49.992;8.422;2022-08-04T07:09:09;27.30;1.00
5459;DHT22;2752;49.992;8.422;2022-08-04T07:11:36;27.50;1.00
5459;DHT22;2752;49.992;8.422;2022-08-04T07:14:04;27.70;1.00
5459;DHT22;2752;49.992;8.422;2022-08-04T07:16:33;27.70;1.00
5459;DHT22;2752;49.992;8.422;2022-08-04T07:19:00;27.80;1.00
5459;DHT22;2752;49.992;8.422;2022-08-04T07:21:27;27.90;1.00
5459;DHT22;2752;49.992;8.422;2022-08-04T07:23:54;28.00;1.00
5459;DHT22;2752;49.992;8.422;2022-08-04T07:26:26;28.20;1.00
5459;DHT22;2752;49.992;8.422;2022-08-04T07:28:53;28.30;1.00
5459;DHT22;2752;49.992;8.422;2022-08-04T07:31:20;28.50;1.00
5459;DHT22;2752;49.992;8.422;2022-08-04T07:33:50;28.60;1.00
5459;DHT22;2752;49.992;8.422;2022-08-04T07:36:17;28.90;1.00
5459;DHT22;2752;49.992;8.422;2022-08-04T07:38:44;29.10;1.00
5459;DHT22;2752;49.992;8.422;2022-08-04T07:41:11;29.30;1.00
5459;DHT22;2752;49.992;8.422;2022-08-04T07:43:38;29.40;1.00
5459;DHT22;2752;49.992;8.422;2022-08-04T07:46:06;29.80;1.00
5459;DHT22;2752;49.992;8.422;2022-08-04T07:48:33;29.90;1.00
5459;DHT22;2752;49.992;8.422;2022-08-04T07:51:01;30.00;1.00
5459;DHT22;2752;49.992;8.422;2022-08-04T07:53:28;30.20;1.00
5459;DHT22;2752;49.992;8.422;2022-08-04T07:55:55;30.30;1.00
5459;DHT22;2752;49.992;8.422;2022-08-04T07:58:22;30.30;1.00
5459;DHT22;2752;49.992;8.422;2022-08-04T08:00:49;30.30;1.00
5459;DHT22;2752;49.992;8.422;2022-08-04T08:03:17;30.40;1.00
5459;DHT22;2752;49.992;8.422;2022-08-04T08:05:44;30.50;1.00
5459;DHT22;2752;49.992;8.422;2022-08-04T08:08:12;30.70;1.00
5459;DHT22;2752;49.992;8.422;2022-08-04T08:10:45;30.90;1.00
5459;DHT22;2752;49.992;8.422;2022-08-04T08:13:12;30.70;1.00
5459;DHT22;2752;49.992;8.422;2022-08-04T08:15:40;30.80;1.00
5459;DHT22;2752;49.992;8.422;2022-08-04T08:18:06;31.00;1.00
5459;DHT22;2752;49.992;8.422;2022-08-04T08:20:33;31.20;1.00
5459;DHT22;2752;49.992;8.422;2022-08-04T08:23:01;31.20;1.00
5459;DHT22;2752;49.992;8.422;2022-08-04T08:25:31;31.20;1.00
5459;DHT22;2752;49.992;8.422;2022-08-04T08:27:58;31.40;1.00
5459;DHT22;2752;49.992;8.422;2022-08-04T08:30:25;31.50;1.00
5459;DHT22;2752;49.992;8.422;2022-08-04T08:32:52;31.40;1.00
5459;DHT22;2752;49.992;8.422;2022-08-04T08:35:19;31.40;1.00
5459;DHT22;2752;49.992;8.422;2022-08-04T08:37:53;31.50;1.00
5459;DHT22;2752;49.992;8.422;2022-08-04T08:40:31;31.50;1.00
5459;DHT22;2752;49.992;8.422;2022-08-04T08:43:21;31.70;1.00
5459;DHT22;2752;49.992;8.422;2022-08-04T08:49:33;31.80;1.00
5459;DHT22;2752;49.992;8.422;2022-08-04T08:52:19;31.90;1.00
5459;DHT22;2752;49.992;8.422;2022-08-04T08:54:59;31.90;1.00
5459;DHT22;2752;49.992;8.422;2022-08-04T08:57:52;32.20;1.00
5459;DHT22;2752;49.992;8.422;2022-08-04T09:00:27;32.20;1.00
5459;DHT22;2752;49.992;8.422;2022-08-04T09:03:26;32.60;1.00
5459;DHT22;2752;49.992;8.422;2022-08-04T09:06:12;32.50;1.00
5459;DHT22;2752;49.992;8.422;2022-08-04T09:09:11;32.50;1.00
5459;DHT22;2752;49.992;8.422;2022-08-04T09:11:46;32.50;1.00
5459;DHT22;2752;49.992;8.422;2022-08-04T09:14:20;32.30;1.00
5459;DHT22;2752;49.992;8.422;2022-08-04T09:16:52;32.40;1.00
5459;DHT22;2752;49.992;8.422;2022-08-04T09:19:26;32.50;1.00
5459;DHT22;2752;49.992;8.422;2022-08-04T09:21:58;32.70;1.00
5459;DHT22;2752;49.992;8.422;2022-08-04T09:24:34;32.80;1.00
5459;DHT22;2752;49.992;8.422;2022-08-04T09:27:09;32.80;1.00
5459;DHT22;2752;49.992;8.422;2022-08-04T09:29:45;33.00;1.00
5459;DHT22;2752;49.992;8.422;2022-08-04T09:32:22;33.00;1.00
5459;DHT22;2752;49.992;8.422;2022-08-04T09:34:59;33.00;1.00
5459;DHT22;2752;49.992;8.422;2022-08-04T09:37:33;33.20;1.00
5459;DHT22;2752;49.992;8.422;2022-08-04T09:40:05;33.30;1.00
5459;DHT22;2752;49.992;8.422;2022-08-04T09:42:39;33.30;1.00
5459;DHT22;2752;49.992;8.422;2022-08-04T09:45:15;33.50;1.00
5459;DHT22;2752;49.992;8.422;2022-08-04T09:47:48;33.50;1.00
5459;DHT22;2752;49.992;8.422;2022-08-04T09:50:25;33.80;1.00
5459;DHT22;2752;49.992;8.422;2022-08-04T09:53:01;33.80;1.00
5459;DHT22;2752;49.992;8.422;2022-08-04T09:55:39;34.00;1.00
5459;DHT22;2752;49.992;8.422;2022-08-04T09:58:13;34.20;1.00
5459;DHT22;2752;49.992;8.422;2022-08-04T10:00:51;34.20;1.00
5459;DHT22;2752;49.992;8.422;2022-08-04T10:03:21;34.50;1.00
5459;DHT22;2752;49.992;8.422;2022-08-04T10:05:59;34.60;1.00
5459;DHT22;2752;49.992;8.422;2022-08-04T10:08:42;34.60;1.00
5459;DHT22;2752;49.992;8.422;2022-08-04T10:11:23;34.70;1.00
5459;DHT22;2752;49.992;8.422;2022-08-04T10:13:59;34.70;1.00
5459;DHT22;2752;49.992;8.422;2022-08-04T10:16:45;34.80;1.00
5459;DHT22;2752;49.992;8.422;2022-08-04T10:19:23;35.30;1.00
5459;DHT22;2752;49.992;8.422;2022-08-04T10:22:02;35.10;1.00
5459;DHT22;2752;49.992;8.422;2022-08-04T10:24:38;35.10;1.00
5459;DHT22;2752;49.992;8.422;2022-08-04T10:27:11;35.20;1.00
5459;DHT22;2752;49.992;8.422;2022-08-04T10:29:42;35.20;1.00
5459;DHT22;2752;49.992;8.422;2022-08-04T10:32:16;35.10;1.00
5459;DHT22;2752;49.992;8.422;2022-08-04T10:34:59;35.10;1.00
5459;DHT22;2752;49.992;8.422;2022-08-04T10:37:28;35.10;1.00
5459;DHT22;2752;49.992;8.422;2022-08-04T10:40:02;35.00;1.00
5459;DHT22;2752;49.992;8.422;2022-08-04T10:42:57;35.10;1.00
5459;DHT22;2752;49.992;8.422;2022-08-04T10:45:27;35.10;1.00
5459;DHT22;2752;49.992;8.422;2022-08-04T10:48:06;35.30;1.00
5459;DHT22;2752;49.992;8.422;2022-08-04T10:50:36;35.20;1.00
5459;DHT22;2752;49.992;8.422;2022-08-04T10:53:10;35.60;1.00
5459;DHT22;2752;49.992;8.422;2022-08-04T10:55:51;35.60;1.00
5459;DHT22;2752;49.992;8.422;2022-08-04T10:58:20;35.70;1.00
5459;DHT22;2752;49.992;8.422;2022-08-04T11:00:49;35.70;1.00
5459;DHT22;2752;49.992;8.422;2022-08-04T11:03:25;35.60;1.00
5459;DHT22;2752;49.992;8.422;2022-08-04T11:05:56;35.40;1.00
5459;DHT22;2752;49.992;8.422;2022-08-04T11:08:25;35.40;1.00
5459;DHT22;2752;49.992;8.422;2022-08-04T11:10:59;35.90;1.00
5459;DHT22;2752;49.992;8.422;2022-08-04T11:13:33;36.00;1.00
5459;DHT22;2752;49.992;8.422;2022-08-04T11:16:04;35.90;1.00
5459;DHT22;2752;49.992;8.422;2022-08-04T11:18:42;36.00;1.00
5459;DHT22;2752;49.992;8.422;2022-08-04T11:21:14;36.20;1.00
5459;DHT22;2752;49.992;8.422;2022-08-04T11:23:46;36.40;1.00
5459;DHT22;2752;49.992;8.422;2022-08-04T11:26:23;36.50;1.00
5459;DHT22;2752;49.992;8.422;2022-08-04T11:28:56;36.50;1.00
5459;DHT22;2752;49.992;8.422;2022-08-04T11:31:27;36.50;1.00
5459;DHT22;2752;49.992;8.422;2022-08-04T11:34:03;36.60;1.00
5459;DHT22;2752;49.992;8.422;2022-08-04T11:36:35;36.30;1.00
5459;DHT22;2752;49.992;8.422;2022-08-04T11:39:08;36.30;1.00
5459;DHT22;2752;49.992;8.422;2022-08-04T11:41:44;36.30;1.00
5459;DHT22;2752;49.992;8.422;2022-08-04T11:44:19;36.40;1.00
5459;DHT22;2752;49.992;8.422;2022-08-04T11:46:50;36.50;1.00
5459;DHT22;2752;49.992;8.422;2022-08-04T11:49:28;36.60;1.00
5459;DHT22;2752;49.992;8.422;2022-08-04T11:51:55;36.90;1.00
5459;DHT22;2752;49.992;8.422;2022-08-04T11:54:23;36.70;1.00
5459;DHT22;2752;49.992;8.422;2022-08-04T11:56:51;36.80;1.00
5459;DHT22;2752;49.992;8.422;2022-08-04T11:59:20;36.60;1.00
5459;DHT22;2752;49.992;8.422;2022-08-04T12:02:06;36.90;1.00
5459;DHT22;2752;49.992;8.422;2022-08-04T12:04:46;37.00;1.00
5459;DHT22;2752;49.992;8.422;2022-08-04T12:07:20;37.10;1.00
5459;DHT22;2752;49.992;8.422;2022-08-04T12:09:55;37.20;1.00
5459;DHT22;2752;49.992;8.422;2022-08-04T12:12:27;37.10;1.00
5459;DHT22;2752;49.992;8.422;2022-08-04T12:15:04;37.20;1.00
5459;DHT22;2752;49.992;8.422;2022-08-04T12:17:37;37.50;1.00
5459;DHT22;2752;49.992;8.422;2022-08-04T12:20:09;37.80;1.00
5459;DHT22;2752;49.992;8.422;2022-08-04T12:22:46;37.80;1.00
5459;DHT22;2752;49.992;8.422;2022-08-04T12:25:17;37.90;1.00
5459;DHT22;2752;49.992;8.422;2022-08-04T12:27:48;38.00;1.00
5459;DHT22;2752;49.992;8.422;2022-08-04T12:30:15;38.30;1.00
5459;DHT22;2752;49.992;8.422;2022-08-04T12:32:52;38.30;1.00
5459;DHT22;2752;49.992;8.422;2022-08-04T12:35:24;39.40;1.00
5459;DHT22;2752;49.992;8.422;2022-08-04T12:37:57;38.80;1.00
5459;DHT22;2752;49.992;8.422;2022-08-04T12:40:30;39.10;1.00
5459;DHT22;2752;49.992;8.422;2022-08-04T12:43:05;39.10;1.00
5459;DHT22;2752;49.992;8.422;2022-08-04T12:45:34;39.30;1.00
5459;DHT22;2752;49.992;8.422;2022-08-04T12:48:03;39.50;1.00
5459;DHT22;2752;49.992;8.422;2022-08-04T12:50:33;39.10;1.00
5459;DHT22;2752;49.992;8.422;2022-08-04T12:53:10;39.30;1.00
5459;DHT22;2752;49.992;8.422;2022-08-04T12:55:38;39.00;1.00
5459;DHT22;2752;49.992;8.422;2022-08-04T12:58:12;38.90;1.00
5459;DHT22;2752;49.992;8.422;2022-08-04T13:00:41;39.20;1.00
5459;DHT22;2752;49.992;8.422;2022-08-04T13:03:11;39.20;1.00
5459;DHT22;2752;49.992;8.422;2022-08-04T13:05:41;39.20;1.00
5459;DHT22;2752;49.992;8.422;2022-08-04T13:08:09;39.20;1.00
5459;DHT22;2752;49.992;8.422;2022-08-04T13:10:38;39.00;1.00
5459;DHT22;2752;49.992;8.422;2022-08-04T13:13:12;39.00;1.00
5459;DHT22;2752;49.992;8.422;2022-08-04T13:15:40;38.60;1.00
5459;DHT22;2752;49.992;8.422;2022-08-04T13:18:09;38.70;1.00
5459;DHT22;2752;49.992;8.422;2022-08-04T13:20:37;38.50;1.00
5459;DHT22;2752;49.992;8.422;2022-08-04T13:23:08;38.30;1.00
5459;DHT22;2752;49.992;8.422;2022-08-04T13:25:40;38.20;1.00
5459;DHT22;2752;49.992;8.422;2022-08-04T13:28:12;38.10;1.00
5459;DHT22;2752;49.992;8.422;2022-08-04T13:30:43;38.00;1.00
5459;DHT22;2752;49.992;8.422;2022-08-04T13:33:11;37.90;1.00
5459;DHT22;2752;49.992;8.422;2022-08-04T13:35:43;37.90;1.00
5459;DHT22;2752;49.992;8.422;2022-08-04T13:38:12;38.00;1.00
5459;DHT22;2752;49.992;8.422;2022-08-04T13:40:40;37.90;1.00
5459;DHT22;2752;49.992;8.422;2022-08-04T13:43:09;38.00;1.00
5459;DHT22;2752;49.992;8.422;2022-08-04T13:45:40;38.30;1.00
5459;DHT22;2752;49.992;8.422;2022-08-04T13:48:08;38.40;1.00
5459;DHT22;2752;49.992;8.422;2022-08-04T13:50:36;39.00;1.00
5459;DHT22;2752;49.992;8.422;2022-08-04T13:53:04;39.20;1.00
5459;DHT22;2752;49.992;8.422;2022-08-04T13:55:34;39.30;1.00
5459;DHT22;2752;49.992;8.422;2022-08-04T13:58:04;39.50;1.00
5459;DHT22;2752;49.992;8.422;2022-08-04T14:00:43;39.50;1.00
5459;DHT22;2752;49.992;8.422;2022-08-04T14:03:17;39.50;1.00
5459;DHT22;2752;49.992;8.422;2022-08-04T14:06:04;39.30;1.00
5459;DHT22;2752;49.992;8.422;2022-08-04T14:08:33;39.20;1.00
5459;DHT22;2752;49.992;8.422;2022-08-04T14:11:04;39.20;1.00
5459;DHT22;2752;49.992;8.422;2022-08-04T14:13:33;39.00;1.00
5459;DHT22;2752;49.992;8.422;2022-08-04T14:16:00;39.30;1.00
5459;DHT22;2752;49.992;8.422;2022-08-04T14:18:28;39.50;1.00
5459;DHT22;2752;49.992;8.422;2022-08-04T14:21:02;39.50;1.00
5459;DHT22;2752;49.992;8.422;2022-08-04T14:23:38;39.30;1.00
5459;DHT22;2752;49.992;8.422;2022-08-04T14:26:15;39.30;1.00
5459;DHT22;2752;49.992;8.422;2022-08-04T14:28:42;39.40;1.00
5459;DHT22;2752;49.992;8.422;2022-08-04T14:31:09;38.90;1.00
5459;DHT22;2752;49.992;8.422;2022-08-04T14:33:38;38.40;1.00
5459;DHT22;2752;49.992;8.422;2022-08-04T14:36:05;38.40;1.00
5459;DHT22;2752;49.992;8.422;2022-08-04T14:38:53;38.30;1.00
5459;DHT22;2752;49.992;8.422;2022-08-04T14:41:23;38.40;1.00
5459;DHT22;2752;49.992;8.422;2022-08-04T14:43:52;38.40;1.00
5459;DHT22;2752;49.992;8.422;2022-08-04T14:46:19;38.50;1.00
5459;DHT22;2752;49.992;8.422;2022-08-04T14:49:05;38.70;1.00
5459;DHT22;2752;49.992;8.422;2022-08-04T14:51:41;38.80;1.00
5459;DHT22;2752;49.992;8.422;2022-08-04T14:54:09;39.00;1.00
5459;DHT22;2752;49.992;8.422;2022-08-04T14:56:38;39.20;1.00
5459;DHT22;2752;49.992;8.422;2022-08-04T14:59:07;39.10;1.00
5459;DHT22;2752;49.992;8.422;2022-08-04T15:01:35;39.10;1.00
5459;DHT22;2752;49.992;8.422;2022-08-04T15:04:03;39.20;1.00
5459;DHT22;2752;49.992;8.422;2022-08-04T15:06:32;38.90;1.00
5459;DHT22;2752;49.992;8.422;2022-08-04T15:09:01;39.20;1.00
5459;DHT22;2752;49.992;8.422;2022-08-04T15:11:28;39.00;1.00
5459;DHT22;2752;49.992;8.422;2022-08-04T15:13:57;39.10;1.00
5459;DHT22;2752;49.992;8.422;2022-08-04T15:16:29;39.20;1.00
5459;DHT22;2752;49.992;8.422;2022-08-04T15:18:56;39.10;1.00
5459;DHT22;2752;49.992;8.422;2022-08-04T15:21:24;39.20;1.00
5459;DHT22;2752;49.992;8.422;2022-08-04T15:23:54;39.30;1.00
5459;DHT22;2752;49.992;8.422;2022-08-04T15:26:27;39.30;1.00
5459;DHT22;2752;49.992;8.422;2022-08-04T15:28:59;39.40;1.00
5459;DHT22;2752;49.992;8.422;2022-08-04T15:31:28;39.30;1.00
5459;DHT22;2752;49.992;8.422;2022-08-04T15:33:59;39.40;1.00
5459;DHT22;2752;49.992;8.422;2022-08-04T15:36:35;39.90;1.00
5459;DHT22;2752;49.992;8.422;2022-08-04T15:39:09;40.10;1.00
5459;DHT22;2752;49.992;8.422;2022-08-04T15:41:43;40.40;1.00
5459;DHT22;2752;49.992;8.422;2022-08-04T15:44:47;40.70;1.00
5459;DHT22;2752;49.992;8.422;2022-08-04T15:47:15;41.00;1.00
5459;DHT22;2752;49.992;8.422;2022-08-04T15:49:42;41.10;1.00
5459;DHT22;2752;49.992;8.422;2022-08-04T15:52:11;41.30;1.00
5459;DHT22;2752;49.992;8.422;2022-08-04T15:57:07;41.30;1.00
5459;DHT22;2752;49.992;8.422;2022-08-04T15:59:58;41.30;1.00
5459;DHT22;2752;49.992;8.422;2022-08-04T16:02:35;41.30;1.00
5459;DHT22;2752;49.992;8.422;2022-08-04T16:05:28;41.30;1.00
5459;DHT22;2752;49.992;8.422;2022-08-04T16:07:56;41.40;1.00
5459;DHT22;2752;49.992;8.422;2022-08-04T16:10:39;41.50;1.00
5459;DHT22;2752;49.992;8.422;2022-08-04T16:13:07;41.30;1.00
5459;DHT22;2752;49.992;8.422;2022-08-04T16:15:44;41.00;1.00
5459;DHT22;2752;49.992;8.422;2022-08-04T16:18:18;41.20;1.00
5459;DHT22;2752;49.992;8.422;2022-08-04T16:20:46;41.10;1.00
5459;DHT22;2752;49.992;8.422;2022-08-04T16:23:44;41.10;1.00
5459;DHT22;2752;49.992;8.422;2022-08-04T16:26:13;41.20;1.00
5459;DHT22;2752;49.992;8.422;2022-08-04T16:28:41;41.20;1.00
5459;DHT22;2752;49.992;8.422;2022-08-04T16:31:10;41.50;1.00
5459;DHT22;2752;49.992;8.422;2022-08-04T16:33:38;41.50;1.00
5459;DHT22;2752;49.992;8.422;2022-08-04T16:36:06;41.50;1.00
5459;DHT22;2752;49.992;8.422;2022-08-04T16:39:01;41.50;1.00
5459;DHT22;2752;49.992;8.422;2022-08-04T16:41:39;41.50;1.00
5459;DHT22;2752;49.992;8.422;2022-08-04T16:44:28;41.50;1.00
5459;DHT22;2752;49.992;8.422;2022-08-04T16:46:57;41.50;1.00
5459;DHT22;2752;49.992;8.422;2022-08-04T16:49:25;41.60;1.00
5459;DHT22;2752;49.992;8.422;2022-08-04T16:51:53;41.80;1.00
5459;DHT22;2752;49.992;8.422;2022-08-04T16:54:20;41.80;1.00
5459;DHT22;2752;49.992;8.422;2022-08-04T16:56:47;42.00;1.00
5459;DHT22;2752;49.992;8.422;2022-08-04T16:59:14;42.10;1.00
5459;DHT22;2752;49.992;8.422;2022-08-04T17:01:45;42.10;1.00
5459;DHT22;2752;49.992;8.422;2022-08-04T17:04:14;42.10;1.00
5459;DHT22;2752;49.992;8.422;2022-08-04T17:06:42;41.80;1.00
5459;DHT22;2752;49.992;8.422;2022-08-04T17:09:12;41.90;1.00
5459;DHT22;2752;49.992;8.422;2022-08-04T17:11:40;42.00;1.00
5459;DHT22;2752;49.992;8.422;2022-08-04T17:14:07;41.90;1.00
5459;DHT22;2752;49.992;8.422;2022-08-04T17:16:35;41.80;1.00
5459;DHT22;2752;49.992;8.422;2022-08-04T17:19:02;41.50;1.00
5459;DHT22;2752;49.992;8.422;2022-08-04T17:21:33;41.10;1.00
5459;DHT22;2752;49.992;8.422;2022-08-04T17:24:02;40.70;1.00
5459;DHT22;2752;49.992;8.422;2022-08-04T17:26:30;40.30;1.00
5459;DHT22;2752;49.992;8.422;2022-08-04T17:28:58;40.00;1.00
5459;DHT22;2752;49.992;8.422;2022-08-04T17:31:26;39.50;1.00